• Join FlightAware (Why Join?)
  • Login
  • US Flag 
05:44AM EDT


 

Airport Tracker/Info


-or-


 

Live Flight TrackerFlight Track Log ✈ N327SR ✈ 23-Jan-2014 ✈ KRDU - KIPJ

Flight Track Log - Related Links

Times and Time Zones

All times are in EST time to prevent confusion due to time zone crossing. See the N327SR flight status page for this flight to view local times or setup timezone preferences in your user account.

Time Position Orientation Groundspeed Altitude Reporting Facility
EST Latitude Longitude Course Direction KTS MPH feet Rate Location/Type
01:46PM 35.8669 -78.7986 251° West 108 124 1,200  Level Washington Center
01:47PM 35.8578 -78.8314 251° West 102 117 2,300 1,200 Climbing Washington Center
01:47PM 35.8506 -78.8644 255° West 119 137 3,500 960 Climbing Washington Center
01:48PM 35.8431 -78.9103 259° West 134 154 4,200 240 Climbing Washington Center
01:49PM 35.8417 -78.9614 268° West 157 181 4,100 -60 Descending Washington Center
01:50PM 35.8403 -79.0100 268° West 148 170 4,100 360 Level Washington Center
01:52PM 35.8367 -79.0611 265° West 128 147 4,900 660 Climbing Washington Center
01:53PM 35.8372 -79.1100 271° West 129 148 5,700  Climbing Washington Center
02:16PM 35.6736 -80.1556 229° Southwest 136 157 6,100  Climbing Atlanta Center
02:16PM 35.6717 -80.1633 253° West 136 157 6,100  Level Atlanta Center
02:17PM 35.4906 -80.0423 229° Southwest  Level FlightAware Approximate
02:17PM 35.6628 -80.2097 257° West 140 161 6,100  Level Atlanta Center
02:18PM 35.4666 -80.0764 229° Southwest  Level FlightAware Approximate
02:18PM 35.6558 -80.2561 260° West 142 163 6,100  Level Atlanta Center
02:19PM 35.4413 -80.1087 219° Southwest  Level FlightAware Approximate
02:19PM 35.6450 -80.3103 256° West 146 168 6,100  Level Atlanta Center
02:20PM 35.4134 -80.1379 229° Southwest  Level FlightAware Approximate
02:20PM 35.6381 -80.3567 260° West 145 167 6,100  Level Atlanta Center
02:21PM 35.3891 -80.1717 229° Southwest  Level FlightAware Approximate
02:21PM 35.6269 -80.4056 254° West 141 162 6,100  Level Atlanta Center
02:22PM 35.6200 -80.4494 259° West 142 163 6,100  Level Atlanta Center
02:23PM 35.6108 -80.4958 256° West 142 163 6,200  Climbing Atlanta Center
02:24PM 35.5997 -80.5447 254° West 146 168 6,100 -60 Descending Atlanta Center
02:25PM 35.5928 -80.5961 261° West 140 161 6,100  Level Atlanta Center
02:26PM 35.5817 -80.6425 254° West 141 162 6,100  Level Atlanta Center
02:27PM 35.5744 -80.6914 260° West 143 165 6,100 -120 Level Atlanta Center
02:28PM 35.5656 -80.7403 257° West 141 162 5,900 -420 Descending Atlanta Center
02:29PM 35.5544 -80.7969 256° West 151 174 5,300 -600 Descending Atlanta Center
02:30PM 35.5453 -80.8431 256° West 149 171 4,700 -600 Descending Atlanta Center